sensor_id;sensor_type;location;lat;lon;timestamp;P1;durP1;ratioP1;P2;durP2;ratioP2
64029;SDS011;50277;52.064;4.492;2023-02-26T00:01:15;8.57;;;1.60;;
64029;SDS011;50277;52.064;4.492;2023-02-26T00:03:43;6.28;;;1.52;;
64029;SDS011;50277;52.064;4.492;2023-02-26T00:06:08;6.93;;;1.60;;
64029;SDS011;50277;52.064;4.492;2023-02-26T00:08:34;4.85;;;1.67;;
64029;SDS011;50277;52.064;4.492;2023-02-26T00:10:59;10.75;;;4.70;;
64029;SDS011;50277;52.064;4.492;2023-02-26T00:13:26;7.00;;;3.80;;
64029;SDS011;50277;52.064;4.492;2023-02-26T00:15:54;13.63;;;3.25;;
64029;SDS011;50277;52.064;4.492;2023-02-26T00:18:20;8.45;;;2.38;;
64029;SDS011;50277;52.064;4.492;2023-02-26T00:20:47;8.93;;;2.20;;
64029;SDS011;50277;52.064;4.492;2023-02-26T00:23:12;3.55;;;1.88;;
64029;SDS011;50277;52.064;4.492;2023-02-26T00:25:38;6.72;;;2.17;;
64029;SDS011;50277;52.064;4.492;2023-02-26T00:28:04;5.00;;;1.60;;
64029;SDS011;50277;52.064;4.492;2023-02-26T00:30:30;4.85;;;1.92;;
64029;SDS011;50277;52.064;4.492;2023-02-26T00:32:56;2.90;;;1.48;;
64029;SDS011;50277;52.064;4.492;2023-02-26T00:35:22;6.78;;;1.63;;
64029;SDS011;50277;52.064;4.492;2023-02-26T00:37:52;3.60;;;1.50;;
64029;SDS011;50277;52.064;4.492;2023-02-26T00:40:38;5.28;;;1.70;;
64029;SDS011;50277;52.064;4.492;2023-02-26T00:43:08;8.43;;;1.83;;
64029;SDS011;50277;52.064;4.492;2023-02-26T00:45:39;5.03;;;1.50;;
64029;SDS011;50277;52.064;4.492;2023-02-26T00:51:17;4.90;;;1.38;;
64029;SDS011;50277;52.064;4.492;2023-02-26T00:56:26;5.18;;;1.38;;
64029;SDS011;50277;52.064;4.492;2023-02-26T00:58:51;3.67;;;1.10;;
64029;SDS011;50277;52.064;4.492;2023-02-26T01:01:17;5.63;;;1.70;;
64029;SDS011;50277;52.064;4.492;2023-02-26T01:03:42;9.23;;;1.88;;
64029;SDS011;50277;52.064;4.492;2023-02-26T01:06:14;1.58;;;0.98;;
64029;SDS011;50277;52.064;4.492;2023-02-26T01:09:16;6.20;;;1.50;;
64029;SDS011;50277;52.064;4.492;2023-02-26T01:11:56;6.57;;;1.70;;
64029;SDS011;50277;52.064;4.492;2023-02-26T01:14:27;3.92;;;1.55;;
64029;SDS011;50277;52.064;4.492;2023-02-26T01:16:57;7.53;;;1.70;;
64029;SDS011;50277;52.064;4.492;2023-02-26T01:19:47;5.30;;;1.77;;
64029;SDS011;50277;52.064;4.492;2023-02-26T01:24:47;8.10;;;1.40;;
64029;SDS011;50277;52.064;4.492;2023-02-26T01:27:13;3.45;;;1.33;;
64029;SDS011;50277;52.064;4.492;2023-02-26T01:29:39;5.85;;;1.25;;
64029;SDS011;50277;52.064;4.492;2023-02-26T01:32:11;4.70;;;1.30;;
64029;SDS011;50277;52.064;4.492;2023-02-26T01:34:58;5.45;;;1.48;;
64029;SDS011;50277;52.064;4.492;2023-02-26T01:37:37;4.80;;;1.52;;
64029;SDS011;50277;52.064;4.492;2023-02-26T01:40:17;3.07;;;1.30;;
64029;SDS011;50277;52.064;4.492;2023-02-26T01:43:02;6.57;;;1.50;;
64029;SDS011;50277;52.064;4.492;2023-02-26T01:45:37;4.35;;;1.20;;
64029;SDS011;50277;52.064;4.492;2023-02-26T01:48:23;9.35;;;1.88;;
64029;SDS011;50277;52.064;4.492;2023-02-26T01:50:58;4.93;;;1.38;;
64029;SDS011;50277;52.064;4.492;2023-02-26T01:53:24;2.13;;;1.20;;
64029;SDS011;50277;52.064;4.492;2023-02-26T01:55:51;3.97;;;1.38;;
64029;SDS011;50277;52.064;4.492;2023-02-26T01:58:29;4.22;;;1.40;;
64029;SDS011;50277;52.064;4.492;2023-02-26T02:00:57;7.45;;;1.60;;
64029;SDS011;50277;52.064;4.492;2023-02-26T02:03:22;7.60;;;1.58;;
64029;SDS011;50277;52.064;4.492;2023-02-26T02:05:51;3.22;;;1.45;;
64029;SDS011;50277;52.064;4.492;2023-02-26T02:08:19;5.22;;;1.60;;
64029;SDS011;50277;52.064;4.492;2023-02-26T02:10:45;5.82;;;1.95;;
64029;SDS011;50277;52.064;4.492;2023-02-26T02:16:36;4.32;;;1.10;;
64029;SDS011;50277;52.064;4.492;2023-02-26T02:27:22;7.47;;;1.40;;
64029;SDS011;50277;52.064;4.492;2023-02-26T02:35:11;8.27;;;1.58;;
64029;SDS011;50277;52.064;4.492;2023-02-26T02:37:42;8.88;;;1.40;;
64029;SDS011;50277;52.064;4.492;2023-02-26T02:45:30;8.15;;;1.52;;
64029;SDS011;50277;52.064;4.492;2023-02-26T02:48:01;2.83;;;1.40;;
64029;SDS011;50277;52.064;4.492;2023-02-26T02:50:33;6.20;;;1.60;;
64029;SDS011;50277;52.064;4.492;2023-02-26T02:53:03;8.32;;;1.70;;
64029;SDS011;50277;52.064;4.492;2023-02-26T02:55:32;8.25;;;1.42;;
64029;SDS011;50277;52.064;4.492;2023-02-26T02:58:02;13.80;;;1.85;;
64029;SDS011;50277;52.064;4.492;2023-02-26T03:00:31;7.70;;;2.33;;
64029;SDS011;50277;52.064;4.492;2023-02-26T03:05:35;9.10;;;2.03;;
64029;SDS011;50277;52.064;4.492;2023-02-26T03:08:02;4.85;;;1.25;;
64029;SDS011;50277;52.064;4.492;2023-02-26T03:10:32;7.63;;;1.40;;
64029;SDS011;50277;52.064;4.492;2023-02-26T03:12:58;8.18;;;1.55;;
64029;SDS011;50277;52.064;4.492;2023-02-26T03:18:10;6.90;;;0.95;;
64029;SDS011;50277;52.064;4.492;2023-02-26T03:20:45;4.22;;;1.25;;
64029;SDS011;50277;52.064;4.492;2023-02-26T03:23:18;5.38;;;1.60;;
64029;SDS011;50277;52.064;4.492;2023-02-26T03:25:51;8.68;;;1.50;;
64029;SDS011;50277;52.064;4.492;2023-02-26T03:33:36;5.43;;;1.38;;
64029;SDS011;50277;52.064;4.492;2023-02-26T03:36:11;6.88;;;1.35;;
64029;SDS011;50277;52.064;4.492;2023-02-26T03:38:56;10.48;;;1.63;;
64029;SDS011;50277;52.064;4.492;2023-02-26T03:41:29;11.15;;;1.80;;
64029;SDS011;50277;52.064;4.492;2023-02-26T03:43:58;8.23;;;1.77;;
64029;SDS011;50277;52.064;4.492;2023-02-26T03:46:32;6.93;;;1.50;;
64029;SDS011;50277;52.064;4.492;2023-02-26T03:49:03;8.82;;;1.52;;
64029;SDS011;50277;52.064;4.492;2023-02-26T03:51:31;5.38;;;1.55;;
64029;SDS011;50277;52.064;4.492;2023-02-26T03:54:02;7.72;;;1.38;;
64029;SDS011;50277;52.064;4.492;2023-02-26T03:59:01;8.40;;;1.50;;
64029;SDS011;50277;52.064;4.492;2023-02-26T04:04:23;3.55;;;1.20;;
64029;SDS011;50277;52.064;4.492;2023-02-26T04:06:50;5.70;;;1.20;;
64029;SDS011;50277;52.064;4.492;2023-02-26T04:09:18;4.78;;;1.35;;
64029;SDS011;50277;52.064;4.492;2023-02-26T04:11:44;5.65;;;1.17;;
64029;SDS011;50277;52.064;4.492;2023-02-26T04:14:10;6.15;;;1.25;;
64029;SDS011;50277;52.064;4.492;2023-02-26T04:16:35;3.72;;;1.50;;
64029;SDS011;50277;52.064;4.492;2023-02-26T04:19:00;5.85;;;1.48;;
64029;SDS011;50277;52.064;4.492;2023-02-26T04:21:26;5.95;;;1.45;;
64029;SDS011;50277;52.064;4.492;2023-02-26T04:23:51;6.72;;;1.35;;
64029;SDS011;50277;52.064;4.492;2023-02-26T04:26:16;10.65;;;1.20;;
64029;SDS011;50277;52.064;4.492;2023-02-26T04:28:42;7.00;;;1.40;;
64029;SDS011;50277;52.064;4.492;2023-02-26T04:31:07;3.75;;;1.20;;
64029;SDS011;50277;52.064;4.492;2023-02-26T04:33:34;6.22;;;1.30;;
64029;SDS011;50277;52.064;4.492;2023-02-26T04:36:00;4.82;;;1.45;;
64029;SDS011;50277;52.064;4.492;2023-02-26T04:38:26;5.70;;;1.52;;
64029;SDS011;50277;52.064;4.492;2023-02-26T04:40:51;5.45;;;1.58;;
64029;SDS011;50277;52.064;4.492;2023-02-26T04:43:17;5.72;;;1.60;;
64029;SDS011;50277;52.064;4.492;2023-02-26T04:45:46;5.72;;;2.10;;
64029;SDS011;50277;52.064;4.492;2023-02-26T04:48:12;5.35;;;1.13;;
64029;SDS011;50277;52.064;4.492;2023-02-26T04:50:38;5.10;;;1.17;;
64029;SDS011;50277;52.064;4.492;2023-02-26T04:53:03;4.38;;;1.48;;
64029;SDS011;50277;52.064;4.492;2023-02-26T04:55:29;2.92;;;1.08;;
64029;SDS011;50277;52.064;4.492;2023-02-26T04:57:54;4.03;;;1.10;;
64029;SDS011;50277;52.064;4.492;2023-02-26T05:00:19;3.17;;;1.40;;
64029;SDS011;50277;52.064;4.492;2023-02-26T05:02:45;5.68;;;1.45;;
64029;SDS011;50277;52.064;4.492;2023-02-26T05:05:11;1.67;;;0.82;;
64029;SDS011;50277;52.064;4.492;2023-02-26T05:07:36;6.32;;;1.25;;
64029;SDS011;50277;52.064;4.492;2023-02-26T05:10:02;3.15;;;1.40;;
64029;SDS011;50277;52.064;4.492;2023-02-26T05:12:29;3.92;;;1.20;;
64029;SDS011;50277;52.064;4.492;2023-02-26T05:14:54;9.02;;;1.75;;
64029;SDS011;50277;52.064;4.492;2023-02-26T05:17:19;2.65;;;1.27;;
64029;SDS011;50277;52.064;4.492;2023-02-26T05:19:45;8.90;;;1.65;;
64029;SDS011;50277;52.064;4.492;2023-02-26T05:22:10;4.22;;;1.23;;
64029;SDS011;50277;52.064;4.492;2023-02-26T05:24:36;4.97;;;1.55;;
64029;SDS011;50277;52.064;4.492;2023-02-26T05:27:01;5.68;;;1.40;;
64029;SDS011;50277;52.064;4.492;2023-02-26T05:29:27;6.93;;;1.35;;
64029;SDS011;50277;52.064;4.492;2023-02-26T05:31:52;6.30;;;1.40;;
64029;SDS011;50277;52.064;4.492;2023-02-26T05:34:17;4.25;;;1.50;;
64029;SDS011;50277;52.064;4.492;2023-02-26T05:36:43;3.92;;;1.30;;
64029;SDS011;50277;52.064;4.492;2023-02-26T05:39:08;4.82;;;1.30;;
64029;SDS011;50277;52.064;4.492;2023-02-26T05:41:34;5.53;;;1.40;;
64029;SDS011;50277;52.064;4.492;2023-02-26T05:43:59;6.82;;;1.48;;
64029;SDS011;50277;52.064;4.492;2023-02-26T05:46:25;4.43;;;1.30;;
64029;SDS011;50277;52.064;4.492;2023-02-26T05:48:50;4.75;;;1.58;;
64029;SDS011;50277;52.064;4.492;2023-02-26T05:51:15;3.92;;;1.10;;
64029;SDS011;50277;52.064;4.492;2023-02-26T05:53:40;5.95;;;1.58;;
64029;SDS011;50277;52.064;4.492;2023-02-26T05:56:06;4.03;;;1.10;;
64029;SDS011;50277;52.064;4.492;2023-02-26T05:58:31;9.48;;;1.13;;
64029;SDS011;50277;52.064;4.492;2023-02-26T06:00:58;10.23;;;1.42;;
64029;SDS011;50277;52.064;4.492;2023-02-26T06:03:24;6.50;;;1.27;;
64029;SDS011;50277;52.064;4.492;2023-02-26T06:05:49;2.50;;;1.20;;
64029;SDS011;50277;52.064;4.492;2023-02-26T06:08:15;7.80;;;1.27;;
64029;SDS011;50277;52.064;4.492;2023-02-26T06:10:41;8.15;;;1.48;;
64029;SDS011;50277;52.064;4.492;2023-02-26T06:13:06;5.93;;;1.27;;
64029;SDS011;50277;52.064;4.492;2023-02-26T06:15:32;8.13;;;1.80;;
64029;SDS011;50277;52.064;4.492;2023-02-26T06:17:57;8.75;;;1.45;;
64029;SDS011;50277;52.064;4.492;2023-02-26T06:20:22;4.65;;;1.60;;
64029;SDS011;50277;52.064;4.492;2023-02-26T06:22:48;9.82;;;1.33;;
64029;SDS011;50277;52.064;4.492;2023-02-26T06:25:13;8.50;;;1.50;;
64029;SDS011;50277;52.064;4.492;2023-02-26T06:27:39;3.83;;;1.35;;
64029;SDS011;50277;52.064;4.492;2023-02-26T06:30:05;5.55;;;1.40;;
64029;SDS011;50277;52.064;4.492;2023-02-26T06:32:31;3.92;;;1.23;;
64029;SDS011;50277;52.064;4.492;2023-02-26T06:34:56;4.10;;;1.10;;
64029;SDS011;50277;52.064;4.492;2023-02-26T06:37:21;6.60;;;1.10;;
64029;SDS011;50277;52.064;4.492;2023-02-26T06:39:47;4.47;;;1.25;;
64029;SDS011;50277;52.064;4.492;2023-02-26T06:42:12;5.18;;;1.42;;
64029;SDS011;50277;52.064;4.492;2023-02-26T06:44:38;10.23;;;1.70;;
64029;SDS011;50277;52.064;4.492;2023-02-26T06:47:03;3.67;;;1.10;;
64029;SDS011;50277;52.064;4.492;2023-02-26T06:49:29;5.43;;;1.05;;
64029;SDS011;50277;52.064;4.492;2023-02-26T06:51:54;7.25;;;1.45;;
64029;SDS011;50277;52.064;4.492;2023-02-26T06:54:19;8.55;;;1.52;;
64029;SDS011;50277;52.064;4.492;2023-02-26T06:56:45;5.55;;;1.77;;
64029;SDS011;50277;52.064;4.492;2023-02-26T06:59:10;7.13;;;1.15;;
64029;SDS011;50277;52.064;4.492;2023-02-26T07:01:35;5.55;;;1.13;;
64029;SDS011;50277;52.064;4.492;2023-02-26T07:04:01;4.07;;;1.17;;
64029;SDS011;50277;52.064;4.492;2023-02-26T07:06:26;2.80;;;1.17;;
64029;SDS011;50277;52.064;4.492;2023-02-26T07:08:51;7.55;;;1.95;;
64029;SDS011;50277;52.064;4.492;2023-02-26T07:11:17;3.22;;;1.00;;
64029;SDS011;50277;52.064;4.492;2023-02-26T07:13:43;5.80;;;1.20;;
64029;SDS011;50277;52.064;4.492;2023-02-26T07:16:08;7.35;;;1.33;;
64029;SDS011;50277;52.064;4.492;2023-02-26T07:18:34;4.25;;;1.10;;
64029;SDS011;50277;52.064;4.492;2023-02-26T07:21:00;7.18;;;1.42;;
64029;SDS011;50277;52.064;4.492;2023-02-26T07:23:25;8.70;;;1.67;;
64029;SDS011;50277;52.064;4.492;2023-02-26T07:25:51;7.72;;;1.30;;
64029;SDS011;50277;52.064;4.492;2023-02-26T07:28:16;6.40;;;1.33;;
64029;SDS011;50277;52.064;4.492;2023-02-26T07:30:41;6.40;;;1.50;;
64029;SDS011;50277;52.064;4.492;2023-02-26T07:33:07;2.08;;;1.10;;
64029;SDS011;50277;52.064;4.492;2023-02-26T07:35:33;7.43;;;1.30;;
64029;SDS011;50277;52.064;4.492;2023-02-26T07:37:58;7.53;;;1.13;;
64029;SDS011;50277;52.064;4.492;2023-02-26T07:40:24;3.83;;;1.48;;
64029;SDS011;50277;52.064;4.492;2023-02-26T07:42:49;5.35;;;1.42;;
64029;SDS011;50277;52.064;4.492;2023-02-26T07:45:14;8.00;;;2.10;;
64029;SDS011;50277;52.064;4.492;2023-02-26T07:47:42;1.98;;;1.00;;
64029;SDS011;50277;52.064;4.492;2023-02-26T07:50:08;6.18;;;1.50;;
64029;SDS011;50277;52.064;4.492;2023-02-26T07:52:34;5.45;;;1.15;;
64029;SDS011;50277;52.064;4.492;2023-02-26T07:55:00;2.97;;;1.13;;
64029;SDS011;50277;52.064;4.492;2023-02-26T07:57:25;4.15;;;1.45;;
64029;SDS011;50277;52.064;4.492;2023-02-26T07:59:50;4.85;;;1.55;;
64029;SDS011;50277;52.064;4.492;2023-02-26T08:02:16;3.90;;;0.82;;
64029;SDS011;50277;52.064;4.492;2023-02-26T08:04:41;3.92;;;1.02;;
64029;SDS011;50277;52.064;4.492;2023-02-26T08:07:07;2.88;;;1.20;;
64029;SDS011;50277;52.064;4.492;2023-02-26T08:09:33;3.00;;;1.02;;
64029;SDS011;50277;52.064;4.492;2023-02-26T08:11:58;3.15;;;1.15;;
64029;SDS011;50277;52.064;4.492;2023-02-26T08:14:24;2.97;;;0.98;;
64029;SDS011;50277;52.064;4.492;2023-02-26T08:16:49;6.00;;;1.30;;
64029;SDS011;50277;52.064;4.492;2023-02-26T08:19:16;3.35;;;1.10;;
64029;SDS011;50277;52.064;4.492;2023-02-26T08:21:42;4.40;;;1.05;;
64029;SDS011;50277;52.064;4.492;2023-02-26T08:24:09;3.50;;;1.02;;
64029;SDS011;50277;52.064;4.492;2023-02-26T08:26:35;4.65;;;1.20;;
64029;SDS011;50277;52.064;4.492;2023-02-26T08:29:01;3.22;;;1.15;;
64029;SDS011;50277;52.064;4.492;2023-02-26T08:31:26;1.63;;;0.95;;
64029;SDS011;50277;52.064;4.492;2023-02-26T08:33:52;2.85;;;0.80;;
64029;SDS011;50277;52.064;4.492;2023-02-26T08:36:18;5.22;;;1.30;;
64029;SDS011;50277;52.064;4.492;2023-02-26T08:38:45;5.63;;;0.98;;
64029;SDS011;50277;52.064;4.492;2023-02-26T08:41:11;7.50;;;1.30;;
64029;SDS011;50277;52.064;4.492;2023-02-26T08:43:36;2.33;;;1.20;;
64029;SDS011;50277;52.064;4.492;2023-02-26T08:46:02;3.38;;;1.20;;
64029;SDS011;50277;52.064;4.492;2023-02-26T08:48:27;2.63;;;0.85;;
64029;SDS011;50277;52.064;4.492;2023-02-26T08:50:53;3.30;;;0.90;;
64029;SDS011;50277;52.064;4.492;2023-02-26T08:53:18;3.75;;;0.93;;
64029;SDS011;50277;52.064;4.492;2023-02-26T08:55:46;1.33;;;0.90;;
64029;SDS011;50277;52.064;4.492;2023-02-26T08:58:16;12.10;;;1.20;;
64029;SDS011;50277;52.064;4.492;2023-02-26T09:00:42;4.68;;;0.95;;
64029;SDS011;50277;52.064;4.492;2023-02-26T09:03:07;6.28;;;0.98;;
64029;SDS011;50277;52.064;4.492;2023-02-26T09:05:32;1.27;;;0.70;;
64029;SDS011;50277;52.064;4.492;2023-02-26T09:07:58;3.08;;;1.10;;
64029;SDS011;50277;52.064;4.492;2023-02-26T09:10:23;4.35;;;1.00;;
64029;SDS011;50277;52.064;4.492;2023-02-26T09:12:48;5.75;;;1.40;;
64029;SDS011;50277;52.064;4.492;2023-02-26T09:15:14;1.90;;;0.90;;
64029;SDS011;50277;52.064;4.492;2023-02-26T09:17:39;2.80;;;0.95;;
64029;SDS011;50277;52.064;4.492;2023-02-26T09:20:05;1.38;;;0.80;;
64029;SDS011;50277;52.064;4.492;2023-02-26T09:22:31;1.52;;;0.95;;
64029;SDS011;50277;52.064;4.492;2023-02-26T09:24:56;4.20;;;1.20;;
64029;SDS011;50277;52.064;4.492;2023-02-26T09:27:22;5.15;;;1.20;;
64029;SDS011;50277;52.064;4.492;2023-02-26T09:29:47;5.78;;;1.25;;
64029;SDS011;50277;52.064;4.492;2023-02-26T09:32:13;4.38;;;1.13;;
64029;SDS011;50277;52.064;4.492;2023-02-26T09:34:38;2.03;;;0.95;;
64029;SDS011;50277;52.064;4.492;2023-02-26T09:37:05;1.85;;;1.00;;
64029;SDS011;50277;52.064;4.492;2023-02-26T09:39:32;4.70;;;1.10;;
64029;SDS011;50277;52.064;4.492;2023-02-26T09:44:35;1.85;;;1.05;;
64029;SDS011;50277;52.064;4.492;2023-02-26T09:54:56;1.52;;;1.00;;
64029;SDS011;50277;52.064;4.492;2023-02-26T09:57:29;2.50;;;1.02;;
64029;SDS011;50277;52.064;4.492;2023-02-26T10:00:03;1.55;;;0.85;;
64029;SDS011;50277;52.064;4.492;2023-02-26T10:05:45;3.13;;;1.13;;
64029;SDS011;50277;52.064;4.492;2023-02-26T10:08:42;2.08;;;0.90;;
64029;SDS011;50277;52.064;4.492;2023-02-26T10:14:36;4.10;;;1.30;;
64029;SDS011;50277;52.064;4.492;2023-02-26T10:17:11;4.88;;;1.33;;
64029;SDS011;50277;52.064;4.492;2023-02-26T10:19:46;4.00;;;0.88;;
64029;SDS011;50277;52.064;4.492;2023-02-26T10:22:18;1.92;;;1.25;;
64029;SDS011;50277;52.064;4.492;2023-02-26T10:24:51;5.13;;;1.10;;
64029;SDS011;50277;52.064;4.492;2023-02-26T10:27:25;3.40;;;0.90;;
64029;SDS011;50277;52.064;4.492;2023-02-26T10:30:03;1.45;;;0.60;;
64029;SDS011;50277;52.064;4.492;2023-02-26T10:33:00;4.13;;;0.90;;
64029;SDS011;50277;52.064;4.492;2023-02-26T10:35:33;1.55;;;0.73;;
64029;SDS011;50277;52.064;4.492;2023-02-26T10:38:04;5.57;;;1.25;;
64029;SDS011;50277;52.064;4.492;2023-02-26T10:40:41;2.10;;;1.40;;
64029;SDS011;50277;52.064;4.492;2023-02-26T10:50:51;2.88;;;1.13;;
64029;SDS011;50277;52.064;4.492;2023-02-26T10:53:19;2.60;;;0.90;;
64029;SDS011;50277;52.064;4.492;2023-02-26T10:56:06;3.63;;;0.70;;
64029;SDS011;50277;52.064;4.492;2023-02-26T10:58:34;2.38;;;1.10;;
64029;SDS011;50277;52.064;4.492;2023-02-26T11:00:59;3.78;;;1.08;;
64029;SDS011;50277;52.064;4.492;2023-02-26T11:03:32;4.90;;;1.27;;
64029;SDS011;50277;52.064;4.492;2023-02-26T11:06:00;0.80;;;0.65;;
64029;SDS011;50277;52.064;4.492;2023-02-26T11:08:36;1.40;;;0.75;;
64029;SDS011;50277;52.064;4.492;2023-02-26T11:11:05;2.70;;;0.95;;
64029;SDS011;50277;52.064;4.492;2023-02-26T11:13:33;2.33;;;0.77;;
64029;SDS011;50277;52.064;4.492;2023-02-26T11:16:02;1.90;;;1.02;;
64029;SDS011;50277;52.064;4.492;2023-02-26T11:21:17;3.03;;;1.02;;
64029;SDS011;50277;52.064;4.492;2023-02-26T11:23:46;2.45;;;1.08;;
64029;SDS011;50277;52.064;4.492;2023-02-26T11:26:15;1.90;;;1.20;;
64029;SDS011;50277;52.064;4.492;2023-02-26T11:28:43;1.98;;;0.90;;
64029;SDS011;50277;52.064;4.492;2023-02-26T11:31:11;4.28;;;0.90;;
64029;SDS011;50277;52.064;4.492;2023-02-26T11:33:40;3.00;;;0.82;;
64029;SDS011;50277;52.064;4.492;2023-02-26T11:36:13;1.38;;;0.68;;
64029;SDS011;50277;52.064;4.492;2023-02-26T11:38:40;1.60;;;0.98;;
64029;SDS011;50277;52.064;4.492;2023-02-26T11:41:09;1.45;;;0.88;;
64029;SDS011;50277;52.064;4.492;2023-02-26T11:43:39;4.22;;;0.88;;
64029;SDS011;50277;52.064;4.492;2023-02-26T11:46:07;2.95;;;0.88;;
64029;SDS011;50277;52.064;4.492;2023-02-26T11:48:45;1.30;;;0.70;;
64029;SDS011;50277;52.064;4.492;2023-02-26T11:51:13;3.95;;;1.00;;
64029;SDS011;50277;52.064;4.492;2023-02-26T11:56:25;5.15;;;0.80;;
64029;SDS011;50277;52.064;4.492;2023-02-26T11:59:06;2.50;;;1.30;;
64029;SDS011;50277;52.064;4.492;2023-02-26T12:01:45;2.83;;;0.80;;
64029;SDS011;50277;52.064;4.492;2023-02-26T12:04:12;1.08;;;0.80;;
64029;SDS011;50277;52.064;4.492;2023-02-26T12:06:39;2.45;;;0.75;;
64029;SDS011;50277;52.064;4.492;2023-02-26T12:09:12;1.80;;;0.55;;
64029;SDS011;50277;52.064;4.492;2023-02-26T12:27:39;2.53;;;0.70;;
64029;SDS011;50277;52.064;4.492;2023-02-26T12:30:22;2.08;;;0.82;;
64029;SDS011;50277;52.064;4.492;2023-02-26T12:35:41;3.22;;;0.73;;
64029;SDS011;50277;52.064;4.492;2023-02-26T12:40:52;5.13;;;0.90;;
64029;SDS011;50277;52.064;4.492;2023-02-26T12:53:58;3.08;;;0.88;;
64029;SDS011;50277;52.064;4.492;2023-02-26T12:56:33;1.38;;;1.05;;
64029;SDS011;50277;52.064;4.492;2023-02-26T12:59:33;2.10;;;1.08;;
64029;SDS011;50277;52.064;4.492;2023-02-26T13:02:45;2.72;;;0.88;;
64029;SDS011;50277;52.064;4.492;2023-02-26T13:07:51;1.90;;;0.68;;
64029;SDS011;50277;52.064;4.492;2023-02-26T13:10:25;5.40;;;1.08;;
64029;SDS011;50277;52.064;4.492;2023-02-26T13:16:03;1.73;;;0.93;;
64029;SDS011;50277;52.064;4.492;2023-02-26T13:18:46;2.22;;;0.80;;
64029;SDS011;50277;52.064;4.492;2023-02-26T13:26:21;2.67;;;1.00;;
64029;SDS011;50277;52.064;4.492;2023-02-26T13:31:20;1.05;;;0.80;;
64029;SDS011;50277;52.064;4.492;2023-02-26T13:33:49;1.90;;;0.80;;
64029;SDS011;50277;52.064;4.492;2023-02-26T13:36:15;4.57;;;1.25;;
64029;SDS011;50277;52.064;4.492;2023-02-26T13:41:54;1.90;;;0.73;;
64029;SDS011;50277;52.064;4.492;2023-02-26T13:44:37;2.50;;;0.90;;
64029;SDS011;50277;52.064;4.492;2023-02-26T13:50:05;7.53;;;1.10;;
64029;SDS011;50277;52.064;4.492;2023-02-26T13:52:55;1.33;;;0.90;;
64029;SDS011;50277;52.064;4.492;2023-02-26T13:58:34;4.72;;;1.20;;
64029;SDS011;50277;52.064;4.492;2023-02-26T14:01:07;2.78;;;0.93;;
64029;SDS011;50277;52.064;4.492;2023-02-26T14:03:34;3.30;;;1.10;;
64029;SDS011;50277;52.064;4.492;2023-02-26T14:14:39;3.85;;;0.80;;
64029;SDS011;50277;52.064;4.492;2023-02-26T14:22:18;1.55;;;0.70;;
64029;SDS011;50277;52.064;4.492;2023-02-26T14:24:57;4.72;;;1.25;;
64029;SDS011;50277;52.064;4.492;2023-02-26T14:27:37;5.15;;;1.05;;
64029;SDS011;50277;52.064;4.492;2023-02-26T14:35:32;3.78;;;1.20;;
64029;SDS011;50277;52.064;4.492;2023-02-26T14:38:02;4.18;;;1.23;;
64029;SDS011;50277;52.064;4.492;2023-02-26T14:40:33;3.92;;;1.50;;
64029;SDS011;50277;52.064;4.492;2023-02-26T14:43:24;0.75;;;0.75;;
64029;SDS011;50277;52.064;4.492;2023-02-26T14:45:57;1.50;;;0.82;;
64029;SDS011;50277;52.064;4.492;2023-02-26T14:48:22;2.63;;;1.15;;
64029;SDS011;50277;52.064;4.492;2023-02-26T14:53:44;4.78;;;1.00;;
64029;SDS011;50277;52.064;4.492;2023-02-26T14:59:09;4.97;;;1.08;;
64029;SDS011;50277;52.064;4.492;2023-02-26T15:01:58;2.05;;;0.68;;
64029;SDS011;50277;52.064;4.492;2023-02-26T15:10:13;2.40;;;0.65;;
64029;SDS011;50277;52.064;4.492;2023-02-26T15:13:07;2.45;;;0.95;;
64029;SDS011;50277;52.064;4.492;2023-02-26T15:21:37;2.72;;;1.42;;
64029;SDS011;50277;52.064;4.492;2023-02-26T15:23:54;2.60;;;0.90;;
64029;SDS011;50277;52.064;4.492;2023-02-26T15:26:22;2.65;;;0.90;;
64029;SDS011;50277;52.064;4.492;2023-02-26T15:31:16;4.60;;;1.17;;
64029;SDS011;50277;52.064;4.492;2023-02-26T15:33:46;1.55;;;0.85;;
64029;SDS011;50277;52.064;4.492;2023-02-26T15:36:15;3.08;;;0.95;;
64029;SDS011;50277;52.064;4.492;2023-02-26T15:38:46;2.85;;;0.95;;
64029;SDS011;50277;52.064;4.492;2023-02-26T15:41:13;3.30;;;0.80;;
64029;SDS011;50277;52.064;4.492;2023-02-26T15:43:40;2.67;;;1.17;;
64029;SDS011;50277;52.064;4.492;2023-02-26T15:46:10;1.17;;;0.90;;
64029;SDS011;50277;52.064;4.492;2023-02-26T15:48:36;4.72;;;0.73;;
64029;SDS011;50277;52.064;4.492;2023-02-26T15:51:06;4.70;;;1.17;;
64029;SDS011;50277;52.064;4.492;2023-02-26T15:53:40;6.05;;;1.23;;
64029;SDS011;50277;52.064;4.492;2023-02-26T15:56:27;1.17;;;0.73;;
64029;SDS011;50277;52.064;4.492;2023-02-26T16:01:24;2.20;;;0.80;;
64029;SDS011;50277;52.064;4.492;2023-02-26T16:03:51;9.75;;;1.55;;
64029;SDS011;50277;52.064;4.492;2023-02-26T16:06:24;3.03;;;0.80;;
64029;SDS011;50277;52.064;4.492;2023-02-26T16:08:52;3.90;;;1.00;;
64029;SDS011;50277;52.064;4.492;2023-02-26T16:11:17;1.55;;;0.70;;
64029;SDS011;50277;52.064;4.492;2023-02-26T16:13:44;5.38;;;0.93;;
64029;SDS011;50277;52.064;4.492;2023-02-26T16:16:15;1.25;;;0.60;;
64029;SDS011;50277;52.064;4.492;2023-02-26T16:18:43;4.57;;;1.17;;
64029;SDS011;50277;52.064;4.492;2023-02-26T16:21:10;4.93;;;1.20;;
64029;SDS011;50277;52.064;4.492;2023-02-26T16:23:55;2.72;;;0.77;;
64029;SDS011;50277;52.064;4.492;2023-02-26T16:29:10;4.13;;;1.15;;
64029;SDS011;50277;52.064;4.492;2023-02-26T16:31:38;2.42;;;1.00;;
64029;SDS011;50277;52.064;4.492;2023-02-26T16:34:19;2.25;;;1.20;;
64029;SDS011;50277;52.064;4.492;2023-02-26T16:36:58;3.20;;;0.77;;
64029;SDS011;50277;52.064;4.492;2023-02-26T16:46:00;2.10;;;0.80;;
64029;SDS011;50277;52.064;4.492;2023-02-26T16:48:28;3.03;;;1.42;;
64029;SDS011;50277;52.064;4.492;2023-02-26T16:50:59;2.85;;;1.10;;
64029;SDS011;50277;52.064;4.492;2023-02-26T16:53:39;3.20;;;1.02;;
64029;SDS011;50277;52.064;4.492;2023-02-26T16:56:13;4.13;;;1.02;;
64029;SDS011;50277;52.064;4.492;2023-02-26T16:58:44;2.60;;;1.25;;
64029;SDS011;50277;52.064;4.492;2023-02-26T17:01:21;7.18;;;2.40;;
64029;SDS011;50277;52.064;4.492;2023-02-26T17:03:47;6.35;;;1.60;;
64029;SDS011;50277;52.064;4.492;2023-02-26T17:06:15;4.40;;;1.30;;
64029;SDS011;50277;52.064;4.492;2023-02-26T17:08:53;4.20;;;1.23;;
64029;SDS011;50277;52.064;4.492;2023-02-26T17:14:08;2.30;;;1.30;;
64029;SDS011;50277;52.064;4.492;2023-02-26T17:16:46;10.98;;;1.45;;
64029;SDS011;50277;52.064;4.492;2023-02-26T17:19:12;6.75;;;1.60;;
64029;SDS011;50277;52.064;4.492;2023-02-26T17:21:40;2.55;;;1.20;;
64029;SDS011;50277;52.064;4.492;2023-02-26T17:24:08;3.15;;;1.15;;
64029;SDS011;50277;52.064;4.492;2023-02-26T17:26:39;15.20;;;2.20;;
64029;SDS011;50277;52.064;4.492;2023-02-26T17:29:04;4.63;;;1.10;;
64029;SDS011;50277;52.064;4.492;2023-02-26T17:31:30;3.03;;;1.45;;
64029;SDS011;50277;52.064;4.492;2023-02-26T17:33:55;3.58;;;1.48;;
64029;SDS011;50277;52.064;4.492;2023-02-26T17:36:20;3.97;;;1.40;;
64029;SDS011;50277;52.064;4.492;2023-02-26T17:38:46;4.53;;;1.27;;
64029;SDS011;50277;52.064;4.492;2023-02-26T17:41:16;2.33;;;1.30;;
64029;SDS011;50277;52.064;4.492;2023-02-26T17:43:42;4.68;;;1.55;;
64029;SDS011;50277;52.064;4.492;2023-02-26T17:46:08;3.45;;;1.65;;
64029;SDS011;50277;52.064;4.492;2023-02-26T17:48:35;11.43;;;2.10;;
64029;SDS011;50277;52.064;4.492;2023-02-26T17:51:01;6.55;;;1.80;;
64029;SDS011;50277;52.064;4.492;2023-02-26T17:53:27;6.57;;;1.85;;
64029;SDS011;50277;52.064;4.492;2023-02-26T17:55:57;5.38;;;1.52;;
64029;SDS011;50277;52.064;4.492;2023-02-26T17:58:31;6.63;;;1.50;;
64029;SDS011;50277;52.064;4.492;2023-02-26T18:00:57;1.98;;;1.40;;
64029;SDS011;50277;52.064;4.492;2023-02-26T18:03:23;7.25;;;1.98;;
64029;SDS011;50277;52.064;4.492;2023-02-26T18:05:49;5.70;;;1.38;;